Time;durP1;ratioP1;P1;durP2;ratioP2;P2;SDS_P1;SDS_P2;PMS_P1;PMS_P2;Temp;Humidity;BMP_temperature;BMP_pressure;BME280_temperature;BME280_humidity;BME280_pressure;Samples;Min_cycle;Max_cycle;Signal;HPM_P1;HPM_P2
2021/03/23 00:01:18;;;;;;;8.78;3.30;;;3.70;61.70;;;;;;1796194;79;21176;-74
2021/03/23 00:03:51;;;;;;;6.90;3.25;;;3.70;61.20;;;;;;1794291;79;21186;-74
2021/03/23 00:06:24;;;;;;;6.35;3.02;;;3.80;62.10;;;;;;1792180;80;21125;-74
2021/03/23 00:08:56;;;;;;;7.95;3.33;;;3.80;60.40;;;;;;1791928;79;21129;-72
2021/03/23 00:11:42;;;;;;;8.45;2.90;;;3.60;60.00;;;;;;1811987;79;21176;-75
2021/03/23 00:14:13;;;;;;;6.58;3.17;;;3.60;60.80;;;;;;1819063;79;21141;-75
2021/03/23 00:16:44;;;;;;;7.67;3.00;;;3.60;60.70;;;;;;1818818;78;21157;-74
2021/03/23 00:19:15;;;;;;;7.80;2.90;;;3.70;60.80;;;;;;1819200;78;21156;-73
2021/03/23 00:21:44;;;;;;;9.08;3.20;;;3.70;60.00;;;;;;1818992;79;21169;-73
2021/03/23 00:24:12;;;;;;;8.20;3.33;;;3.70;59.30;;;;;;1818808;79;21121;-76
2021/03/23 00:26:39;;;;;;;5.67;2.80;;;3.60;59.70;;;;;;1817266;78;21560;-77
2021/03/23 00:29:07;;;;;;;8.83;3.40;;;3.60;59.60;;;;;;1818927;79;21154;-76
2021/03/23 00:31:35;;;;;;;7.67;3.47;;;3.60;59.40;;;;;;1818645;78;21113;-77
2021/03/23 00:34:08;;;;;;;7.85;3.52;;;3.70;59.50;;;;;;1819179;79;21532;-73
2021/03/23 00:36:41;;;;;;;7.87;3.17;;;3.80;59.80;;;;;;1819066;79;21090;-74
2021/03/23 00:39:12;;;;;;;6.75;3.08;;;3.70;59.40;;;;;;1819395;79;21126;-75
2021/03/23 00:41:43;;;;;;;6.47;2.90;;;3.60;58.90;;;;;;1819081;79;21131;-75
2021/03/23 00:44:14;;;;;;;9.50;3.20;;;3.60;58.80;;;;;;1819150;79;21556;-75
2021/03/23 00:46:41;;;;;;;9.03;3.00;;;3.60;59.10;;;;;;1819218;78;21121;-76
2021/03/23 00:49:10;;;;;;;6.20;2.98;;;3.60;59.20;;;;;;1819181;79;21207;-76
2021/03/23 00:51:38;;;;;;;6.62;3.08;;;3.60;58.70;;;;;;1818993;79;21157;-76
2021/03/23 00:54:07;;;;;;;7.53;2.90;;;3.70;59.00;;;;;;1786276;79;21132;-76
2021/03/23 00:56:35;;;;;;;8.35;2.90;;;3.70;59.10;;;;;;1818078;79;21569;-76
2021/03/23 00:59:03;;;;;;;5.45;2.70;;;3.70;59.30;;;;;;1819232;79;21133;-76
2021/03/23 01:01:30;;;;;;;8.23;3.25;;;3.60;58.50;;;;;;1819157;78;21161;-76
2021/03/23 01:04:00;;;;;;;7.05;2.90;;;3.70;58.00;;;;;;1815229;79;21153;-76
2021/03/23 01:06:28;;;;;;;9.03;3.00;;;3.70;57.90;;;;;;1819197;79;21575;-76
2021/03/23 01:08:56;;;;;;;8.15;2.80;;;3.60;58.40;;;;;;1819141;78;21595;-76
2021/03/23 01:11:24;;;;;;;6.45;2.70;;;3.50;59.10;;;;;;1819272;78;21585;-76
2021/03/23 01:13:52;;;;;;;6.10;2.70;;;3.60;58.60;;;;;;1819410;79;21509;-76
2021/03/23 01:16:20;;;;;;;7.95;2.80;;;3.60;58.30;;;;;;1819380;79;21146;-76
2021/03/23 01:18:48;;;;;;;7.67;3.10;;;3.70;58.20;;;;;;1819348;79;21144;-76
2021/03/23 01:21:16;;;;;;;6.30;2.77;;;3.70;58.30;;;;;;1819234;79;21189;-76
2021/03/23 01:23:43;;;;;;;8.00;2.83;;;3.60;59.10;;;;;;1819374;79;21161;-77
2021/03/23 01:26:11;;;;;;;6.30;2.58;;;3.60;58.40;;;;;;1819460;79;21160;-77
2021/03/23 01:28:39;;;;;;;6.83;2.65;;;3.60;59.30;;;;;;1819368;79;21591;-77
2021/03/23 01:31:07;;;;;;;8.13;2.90;;;3.60;58.10;;;;;;1819174;79;21161;-77
2021/03/23 01:33:35;;;;;;;8.55;3.12;;;3.60;58.10;;;;;;1819268;79;21138;-77
2021/03/23 01:36:04;;;;;;;8.25;3.02;;;3.60;58.70;;;;;;1819140;79;21133;-76
2021/03/23 01:38:32;;;;;;;9.85;2.75;;;3.50;58.10;;;;;;1819264;79;21142;-75
2021/03/23 01:41:01;;;;;;;8.00;2.67;;;3.60;58.00;;;;;;1819326;79;21153;-76
2021/03/23 01:43:33;;;;;;;5.75;2.70;;;3.50;57.60;;;;;;1819420;79;21137;-75
2021/03/23 01:46:05;;;;;;;8.15;3.20;;;3.40;57.30;;;;;;1819249;78;21571;-76
2021/03/23 01:48:34;;;;;;;9.30;3.00;;;3.40;57.50;;;;;;1811262;79;21157;-75
2021/03/23 01:51:07;;;;;;;8.05;3.10;;;3.40;57.30;;;;;;1819405;79;21197;-75
2021/03/23 01:53:49;;;;;;;6.87;3.00;;;3.40;57.10;;;;;;1819361;79;21087;-75
2021/03/23 01:56:17;;;;;;;7.67;3.20;;;3.30;57.10;;;;;;1819161;79;21136;-75
2021/03/23 01:58:49;;;;;;;6.87;3.35;;;3.20;57.30;;;;;;1819129;78;21149;-75
2021/03/23 02:01:20;;;;;;;7.12;2.98;;;3.20;57.30;;;;;;1819114;79;21142;-74
2021/03/23 02:03:50;;;;;;;7.97;3.22;;;3.20;57.30;;;;;;1819250;79;21173;-74
2021/03/23 02:06:49;;;;;;;8.60;3.45;;;3.20;57.40;;;;;;1819249;79;21132;-75
2021/03/23 02:09:23;;;;;;;7.95;2.90;;;3.10;57.60;;;;;;1819104;79;21152;-75
2021/03/23 02:11:54;;;;;;;6.62;3.22;;;3.20;57.00;;;;;;1818400;79;21602;-75
2021/03/23 02:14:27;;;;;;;8.08;3.08;;;3.10;56.70;;;;;;1819154;78;21145;-75
2021/03/23 02:17:16;;;;;;;6.87;2.60;;;3.30;57.20;;;;;;1819354;79;21531;-77
2021/03/23 02:19:45;;;;;;;5.75;2.33;;;3.30;56.80;;;;;;1819323;79;21161;-75
2021/03/23 02:22:31;;;;;;;5.62;2.58;;;3.30;56.40;;;;;;1819200;79;21146;-74
2021/03/23 02:24:59;;;;;;;6.62;2.95;;;3.40;56.30;;;;;;1819344;79;21536;-76
2021/03/23 02:27:27;;;;;;;7.65;3.10;;;3.40;55.90;;;;;;1819282;79;21113;-76
2021/03/23 02:29:59;;;;;;;7.40;2.98;;;3.40;55.60;;;;;;1819180;79;21587;-75
2021/03/23 02:32:27;;;;;;;8.03;2.90;;;3.50;55.80;;;;;;1819321;79;21140;-75
2021/03/23 02:34:55;;;;;;;5.08;2.40;;;3.30;55.30;;;;;;1819112;78;21105;-76
2021/03/23 02:37:23;;;;;;;6.97;2.95;;;3.40;55.00;;;;;;1819214;79;21145;-76
2021/03/23 02:39:51;;;;;;;6.95;3.00;;;3.30;54.50;;;;;;1819076;79;21173;-75
2021/03/23 02:42:19;;;;;;;7.17;2.62;;;3.20;54.60;;;;;;1819442;79;21166;-76
2021/03/23 02:44:48;;;;;;;7.65;2.87;;;3.30;54.90;;;;;;1819251;79;21148;-76
2021/03/23 02:47:19;;;;;;;7.50;2.60;;;3.20;54.20;;;;;;1819089;79;21133;-75
2021/03/23 02:49:47;;;;;;;7.95;2.83;;;3.20;54.30;;;;;;1819111;78;21141;-75
2021/03/23 02:52:15;;;;;;;5.55;2.50;;;3.10;54.60;;;;;;1819163;79;21541;-73
2021/03/23 02:54:42;;;;;;;6.67;2.65;;;3.20;54.40;;;;;;1819151;78;21169;-73
2021/03/23 02:57:10;;;;;;;7.12;2.87;;;3.10;54.20;;;;;;1819249;79;21595;-74
2021/03/23 02:59:38;;;;;;;6.08;2.70;;;3.10;54.50;;;;;;1819278;79;21140;-74
2021/03/23 03:02:06;;;;;;;9.38;2.77;;;3.10;54.60;;;;;;1819067;79;21145;-74
2021/03/23 03:04:36;;;;;;;5.97;2.62;;;3.20;54.80;;;;;;1820710;79;21246;-74
2021/03/23 03:07:05;;;;;;;5.12;2.02;;;3.10;54.70;;;;;;1822520;78;21279;-75
2021/03/23 03:09:32;;;;;;;7.55;2.50;;;3.10;54.00;;;;;;1822619;79;21275;-75
2021/03/23 03:12:01;;;;;;;7.05;2.65;;;3.20;53.80;;;;;;1822524;79;21283;-75
2021/03/23 03:14:29;;;;;;;6.90;2.80;;;3.20;53.90;;;;;;1823091;78;21248;-75
2021/03/23 03:16:57;;;;;;;5.25;2.52;;;3.20;54.20;;;;;;1822736;79;21271;-75
2021/03/23 03:19:25;;;;;;;7.75;2.90;;;3.20;53.80;;;;;;1822696;79;21279;-75
2021/03/23 03:21:52;;;;;;;5.15;2.50;;;3.20;54.70;;;;;;1822448;79;21283;-75
2021/03/23 03:24:20;;;;;;;5.08;2.37;;;3.10;54.20;;;;;;1822688;79;21271;-75
2021/03/23 03:26:48;;;;;;;7.97;3.22;;;3.10;54.90;;;;;;1822606;79;21149;-75
2021/03/23 03:29:15;;;;;;;5.95;3.10;;;3.00;55.00;;;;;;1822497;78;21275;-75
2021/03/23 03:31:43;;;;;;;7.97;2.70;;;3.10;54.40;;;;;;1794290;79;21127;-76
2021/03/23 03:34:11;;;;;;;7.92;2.77;;;3.20;54.60;;;;;;1822473;79;21169;-76
2021/03/23 03:36:39;;;;;;;9.30;2.30;;;3.10;54.20;;;;;;1822490;79;21298;-75
2021/03/23 03:39:07;;;;;;;7.15;2.70;;;3.10;54.70;;;;;;1822609;79;21682;-76
2021/03/23 03:41:35;;;;;;;5.92;3.02;;;3.00;54.70;;;;;;1822469;78;21290;-77
2021/03/23 03:44:04;;;;;;;7.10;2.67;;;2.90;54.60;;;;;;1822672;79;21690;-78
2021/03/23 03:46:32;;;;;;;10.95;2.85;;;2.90;54.70;;;;;;1822512;79;21295;-76
2021/03/23 03:49:00;;;;;;;7.22;3.15;;;2.90;54.60;;;;;;1822659;79;21284;-77
2021/03/23 03:51:27;;;;;;;6.87;3.30;;;2.70;54.80;;;;;;1822478;79;21702;-76
2021/03/23 03:53:56;;;;;;;8.33;3.33;;;2.60;55.60;;;;;;1822583;79;21296;-76
2021/03/23 03:56:24;;;;;;;6.85;2.70;;;2.60;55.30;;;;;;1822496;78;21280;-76
2021/03/23 03:58:51;;;;;;;9.50;3.10;;;2.50;55.30;;;;;;1822780;79;21169;-75
2021/03/23 04:01:19;;;;;;;6.83;2.65;;;2.50;56.30;;;;;;1822418;78;21133;-74
2021/03/23 04:03:49;;;;;;;7.45;2.80;;;2.50;56.10;;;;;;1822551;78;21735;-75
2021/03/23 04:06:18;;;;;;;5.85;2.70;;;2.50;56.40;;;;;;1820292;79;21282;-75
2021/03/23 04:08:46;;;;;;;6.75;2.87;;;2.50;56.60;;;;;;1822673;79;21302;-75
2021/03/23 04:11:14;;;;;;;7.15;2.67;;;2.50;55.10;;;;;;1822861;79;21678;-76
2021/03/23 04:13:42;;;;;;;6.03;2.65;;;2.50;55.60;;;;;;1822499;78;21286;-75
2021/03/23 04:16:10;;;;;;;6.80;2.90;;;2.50;55.40;;;;;;1822532;78;21161;-73
2021/03/23 04:18:38;;;;;;;7.03;2.47;;;2.60;55.10;;;;;;1822479;78;21271;-75
2021/03/23 04:21:06;;;;;;;6.55;3.00;;;2.50;54.70;;;;;;1822456;78;21150;-74
2021/03/23 04:23:40;;;;;;;6.72;2.72;;;2.50;55.00;;;;;;1822237;79;21286;-74
2021/03/23 04:26:12;;;;;;;12.82;2.65;;;2.30;55.10;;;;;;1822519;78;21153;-75
2021/03/23 04:28:40;;;;;;;6.80;2.70;;;2.50;55.40;;;;;;1822474;79;21145;-77
2021/03/23 04:31:13;;;;;;;7.35;2.77;;;2.50;55.00;;;;;;1822997;79;21571;-75
2021/03/23 04:33:41;;;;;;;7.22;2.50;;;2.40;55.10;;;;;;1821825;79;21148;-75
2021/03/23 04:36:09;;;;;;;6.75;2.75;;;2.40;55.00;;;;;;1822673;79;21110;-75
2021/03/23 04:38:38;;;;;;;6.22;2.80;;;2.50;55.50;;;;;;1822562;79;21714;-75
2021/03/23 04:41:10;;;;;;;6.83;2.65;;;2.50;55.30;;;;;;1822431;79;21598;-76
2021/03/23 04:43:45;;;;;;;7.35;2.60;;;2.50;55.80;;;;;;1822593;78;21263;-76
2021/03/23 04:46:17;;;;;;;7.53;2.83;;;2.50;55.20;;;;;;1822806;78;21117;-76
2021/03/23 04:48:45;;;;;;;8.03;2.90;;;2.50;55.10;;;;;;1822974;78;21267;-76
2021/03/23 04:51:15;;;;;;;9.40;3.25;;;2.40;56.40;;;;;;1822618;78;21762;-76
2021/03/23 04:53:44;;;;;;;7.35;2.77;;;2.30;55.20;;;;;;1822860;79;21294;-76
2021/03/23 04:56:26;;;;;;;6.53;3.20;;;2.30;55.40;;;;;;1822807;78;21674;-75
2021/03/23 04:58:54;;;;;;;9.40;3.60;;;2.10;55.60;;;;;;1821953;79;21697;-76
2021/03/23 05:01:22;;;;;;;7.85;3.40;;;2.20;55.80;;;;;;1822656;79;21544;-77
2021/03/23 05:03:57;;;;;;;6.92;3.17;;;2.10;55.90;;;;;;1822712;78;21292;-75
2021/03/23 05:06:27;;;;;;;5.42;2.95;;;2.00;55.90;;;;;;1822571;79;21157;-74
2021/03/23 05:08:56;;;;;;;6.65;2.92;;;2.00;56.10;;;;;;1822729;79;21271;-75
2021/03/23 05:11:28;;;;;;;7.47;2.90;;;1.90;56.50;;;;;;1822600;79;21314;-76
2021/03/23 05:13:58;;;;;;;5.97;2.80;;;2.00;57.50;;;;;;1822873;78;21262;-75
2021/03/23 05:16:27;;;;;;;6.62;2.80;;;2.00;56.60;;;;;;1822630;79;21302;-74
2021/03/23 05:18:55;;;;;;;6.30;2.87;;;2.00;56.70;;;;;;1822705;78;21730;-76
2021/03/23 05:21:23;;;;;;;6.97;2.90;;;2.00;56.90;;;;;;1822556;79;21291;-76
2021/03/23 05:23:58;;;;;;;6.15;2.90;;;2.00;56.80;;;;;;1822836;78;21275;-74
2021/03/23 05:26:28;;;;;;;8.73;2.92;;;2.00;56.90;;;;;;1822624;79;21256;-74
2021/03/23 05:28:56;;;;;;;8.00;3.17;;;2.00;56.60;;;;;;1822805;79;21580;-74
2021/03/23 05:31:24;;;;;;;7.78;3.10;;;2.00;56.90;;;;;;1822588;78;21268;-75
2021/03/23 05:33:53;;;;;;;7.67;2.70;;;2.00;57.20;;;;;;1822362;78;21188;-75
2021/03/23 05:36:24;;;;;;;7.67;3.40;;;1.90;56.90;;;;;;1822500;79;21728;-75
2021/03/23 05:38:52;;;;;;;12.68;3.20;;;1.90;57.20;;;;;;1822492;78;21595;-74
2021/03/23 05:42:00;;;;;;;6.83;3.33;;;1.90;56.80;;;;;;1822459;79;21283;-76
2021/03/23 05:44:54;;;;;;;11.63;3.87;;;1.90;57.00;;;;;;1822393;78;21129;-75
2021/03/23 05:47:35;;;;;;;10.43;3.58;;;1.80;56.50;;;;;;1822599;79;21315;-76
2021/03/23 05:50:27;;;;;;;9.50;3.95;;;1.90;57.00;;;;;;1822191;78;21283;-75
2021/03/23 05:53:06;;;;;;;11.43;5.20;;;1.80;57.10;;;;;;1821594;79;21133;-74
2021/03/23 05:55:46;;;;;;;10.48;3.90;;;1.80;57.60;;;;;;1772357;80;21120;-70
2021/03/23 05:58:28;;;;;;;11.22;4.83;;;1.80;57.30;;;;;;1767632;80;21112;-73
2021/03/23 06:01:20;;;;;;;9.25;4.12;;;1.80;57.90;;;;;;1758732;81;21274;-75
2021/03/23 06:04:22;;;;;;;9.45;3.90;;;1.90;57.80;;;;;;1766334;80;21165;-71
2021/03/23 06:07:07;;;;;;;10.23;4.12;;;1.90;58.10;;;;;;1792138;79;21591;-73
2021/03/23 06:09:39;;;;;;;10.03;4.33;;;2.00;58.10;;;;;;1792126;80;21113;-78
2021/03/23 06:12:34;;;;;;;10.45;4.15;;;2.10;57.90;;;;;;1800205;79;21128;-78
2021/03/23 06:15:24;;;;;;;21.45;4.62;;;2.20;57.50;;;;;;1796039;79;21602;-75
2021/03/23 06:18:20;;;;;;;12.37;3.62;;;2.20;56.70;;;;;;1739654;82;21166;-75
2021/03/23 06:21:09;;;;;;;8.85;3.83;;;2.30;56.60;;;;;;1740743;82;21090;-74
2021/03/23 06:23:54;;;;;;;9.85;3.33;;;2.30;56.60;;;;;;1697308;82;21640;-75
2021/03/23 06:26:44;;;;;;;10.93;3.87;;;2.50;56.60;;;;;;1760239;81;21583;-75
2021/03/23 06:29:34;;;;;;;13.75;3.47;;;2.40;55.40;;;;;;1722403;82;21168;-77
2021/03/23 06:32:31;;;;;;;8.23;3.20;;;2.40;55.00;;;;;;1767137;80;21172;-76
2021/03/23 06:35:01;;;;;;;7.42;3.37;;;2.40;55.90;;;;;;1723410;83;21164;-77
2021/03/23 06:37:36;;;;;;;9.88;3.65;;;2.60;55.10;;;;;;1755175;82;21157;-76
2021/03/23 06:40:12;;;;;;;9.80;3.90;;;2.60;55.00;;;;;;1755340;81;21149;-77
2021/03/23 06:42:48;;;;;;;8.80;3.70;;;2.60;55.00;;;;;;1755017;82;21169;-79
2021/03/23 06:45:36;;;;;;;10.95;4.20;;;2.70;55.00;;;;;;1755057;81;21161;-84
2021/03/23 06:48:25;;;;;;;9.85;3.95;;;2.70;55.40;;;;;;1755010;82;21130;-85
2021/03/23 06:51:13;;;;;;;8.93;3.80;;;2.90;56.60;;;;;;1755135;82;21189;-84
2021/03/23 06:53:43;;;;;;;10.65;3.52;;;3.00;55.50;;;;;;1754997;82;21145;-85
2021/03/23 06:56:24;;;;;;;7.05;3.22;;;3.10;55.10;;;;;;1754899;81;21176;-85
2021/03/23 06:59:19;;;;;;;6.70;3.00;;;3.20;54.50;;;;;;1755033;82;21173;-83
2021/03/23 07:01:50;;;;;;;10.43;3.20;;;3.40;54.10;;;;;;1754891;81;21145;-80
2021/03/23 07:04:35;;;;;;;9.13;3.35;;;3.50;53.40;;;;;;1755114;81;21153;-86
2021/03/23 07:07:22;;;;;;;10.18;3.25;;;3.60;53.50;;;;;;1750416;81;21196;-88
2021/03/23 07:09:59;;;;;;;10.08;3.50;;;3.80;53.60;;;;;;1753250;81;21132;-84
2021/03/23 07:12:40;;;;;;;8.45;3.00;;;3.80;53.00;;;;;;1788026;79;21263;-83
2021/03/23 07:15:27;;;;;;;6.85;2.40;;;3.90;52.60;;;;;;1786962;80;21176;-76
2021/03/23 07:18:00;;;;;;;9.85;2.50;;;4.10;51.70;;;;;;1786853;80;21201;-76
2021/03/23 07:20:37;;;;;;;7.42;2.70;;;4.00;51.40;;;;;;1782248;80;21594;-75
2021/03/23 07:23:45;;;;;;;7.12;2.55;;;3.90;52.30;;;;;;1787223;80;21177;-74
2021/03/23 07:26:23;;;;;;;6.30;2.72;;;4.00;51.40;;;;;;1787339;80;21322;-75
2021/03/23 07:28:51;;;;;;;14.20;2.90;;;4.00;51.20;;;;;;1786521;80;21174;-75
2021/03/23 07:31:43;;;;;;;9.40;2.90;;;4.00;51.50;;;;;;1786859;80;21169;-76
2021/03/23 07:34:53;;;;;;;6.15;2.50;;;4.00;51.00;;;;;;1786801;80;21149;-87
2021/03/23 07:37:38;;;;;;;7.12;2.85;;;4.00;51.10;;;;;;1787170;80;21157;-88
2021/03/23 07:40:27;;;;;;;7.50;3.10;;;4.20;51.30;;;;;;1787601;80;21126;-81
2021/03/23 07:43:06;;;;;;;7.42;2.87;;;4.20;51.60;;;;;;1786723;80;21145;-86
2021/03/23 07:45:41;;;;;;;5.97;2.72;;;4.10;51.20;;;;;;1786289;80;21145;-86
2021/03/23 07:48:15;;;;;;;6.65;2.87;;;4.20;51.50;;;;;;1792040;79;21130;-84
2021/03/23 07:50:50;;;;;;;7.00;2.60;;;4.30;51.30;;;;;;1800131;79;21133;-83
2021/03/23 07:53:35;;;;;;;8.20;2.58;;;4.60;51.40;;;;;;1790545;79;21149;-82
2021/03/23 07:56:17;;;;;;;5.83;2.47;;;4.90;50.40;;;;;;1791567;80;21137;-84
2021/03/23 07:58:54;;;;;;;5.55;2.22;;;5.60;48.90;;;;;;1792489;79;21168;-81
2021/03/23 08:01:29;;;;;;;6.20;2.20;;;6.40;46.20;;;;;;1789197;79;21125;-82
2021/03/23 08:04:25;;;;;;;13.88;2.37;;;7.30;43.90;;;;;;1786573;80;21722;-76
2021/03/23 08:07:04;;;;;;;6.28;2.10;;;8.20;41.10;;;;;;1777924;80;21175;-83
2021/03/23 08:09:54;;;;;;;5.90;1.95;;;9.30;39.40;;;;;;1786412;80;21161;-78
2021/03/23 08:13:07;;;;;;;3.87;1.90;;;9.70;37.70;;;;;;1786801;80;21149;-82
2021/03/23 08:16:03;;;;;;;5.15;2.30;;;10.20;37.60;;;;;;1792660;79;21128;-74
2021/03/23 08:18:51;;;;;;;4.22;2.10;;;10.80;36.10;;;;;;1796754;79;21126;-74
2021/03/23 08:21:56;;;;;;;4.92;2.25;;;11.20;34.10;;;;;;1714205;82;21141;-75
2021/03/23 08:25:02;;;;;;;5.17;2.22;;;11.80;32.50;;;;;;1788891;78;21597;-74
2021/03/23 08:27:53;;;;;;;5.67;2.15;;;12.50;32.50;;;;;;1792252;80;21121;-73
2021/03/23 08:30:30;;;;;;;5.40;1.80;;;13.30;30.50;;;;;;1792191;79;21300;-76
2021/03/23 08:33:19;;;;;;;4.17;2.20;;;13.20;29.80;;;;;;1791492;80;21552;-71
2021/03/23 08:36:16;;;;;;;4.62;2.05;;;13.20;30.10;;;;;;1796828;79;21090;-75
2021/03/23 08:39:07;;;;;;;4.50;1.90;;;12.80;30.40;;;;;;1793280;79;21149;-76
2021/03/23 08:41:54;;;;;;;4.28;1.70;;;13.10;30.40;;;;;;1817675;79;21137;-78
2021/03/23 08:44:40;;;;;;;5.90;1.70;;;13.30;30.10;;;;;;1819081;79;21161;-78
2021/03/23 08:47:28;;;;;;;5.80;2.12;;;13.10;29.80;;;;;;1803800;78;21117;-75
2021/03/23 08:50:17;;;;;;;6.97;2.25;;;13.00;30.10;;;;;;1792257;80;21130;-76
2021/03/23 08:52:49;;;;;;;4.78;2.25;;;12.70;31.30;;;;;;1791044;79;21595;-76
2021/03/23 08:55:37;;;;;;;4.33;2.30;;;12.30;31.90;;;;;;1792455;80;21577;-75
2021/03/23 08:58:09;;;;;;;6.20;2.52;;;11.70;32.00;;;;;;1792451;80;21140;-76
2021/03/23 09:00:42;;;;;;;6.42;2.40;;;11.70;33.40;;;;;;1792202;79;21271;-76
2021/03/23 09:03:16;;;;;;;4.05;2.10;;;11.60;33.10;;;;;;1792346;79;21596;-75
2021/03/23 09:05:55;;;;;;;6.47;2.00;;;11.50;33.60;;;;;;1792442;80;21576;-76
2021/03/23 09:08:44;;;;;;;6.20;2.00;;;11.50;34.00;;;;;;1794608;80;21579;-75
2021/03/23 09:11:29;;;;;;;4.30;2.05;;;10.70;33.90;;;;;;1796310;79;21129;-77
2021/03/23 09:14:14;;;;;;;7.40;2.30;;;10.30;35.70;;;;;;1796352;79;21699;-77
2021/03/23 09:16:53;;;;;;;4.55;1.92;;;10.10;36.90;;;;;;1796352;79;21552;-76
2021/03/23 09:19:51;;;;;;;5.70;2.17;;;9.90;37.00;;;;;;1796252;79;21117;-74
2021/03/23 09:22:35;;;;;;;8.28;1.77;;;9.80;37.30;;;;;;1778026;79;22624;-78
2021/03/23 09:25:44;;;;;;;5.25;2.10;;;9.40;38.10;;;;;;1788480;80;21181;-77
2021/03/23 09:28:40;;;;;;;5.75;2.30;;;8.90;38.00;;;;;;1788521;80;21180;-77
2021/03/23 09:31:48;;;;;;;4.90;2.08;;;8.90;39.50;;;;;;1788478;80;21129;-76
2021/03/23 09:35:05;;;;;;;6.17;2.22;;;8.70;39.10;;;;;;1788649;80;21600;-78
2021/03/23 09:37:59;;;;;;;5.72;1.95;;;8.20;40.40;;;;;;1784776;80;21147;-73
2021/03/23 09:40:44;;;;;;;7.15;2.45;;;8.30;40.90;;;;;;1769308;80;21106;-72
2021/03/23 09:43:39;;;;;;;6.62;2.08;;;8.20;41.10;;;;;;1773042;80;21128;-71
2021/03/23 09:46:27;;;;;;;5.37;2.40;;;8.00;41.20;;;;;;1773041;80;21086;-79
2021/03/23 09:49:28;;;;;;;7.08;3.08;;;8.00;41.80;;;;;;1768912;80;21255;-76
2021/03/23 09:52:10;;;;;;;7.80;2.27;;;8.00;41.90;;;;;;1765725;80;21157;-74
2021/03/23 09:54:53;;;;;;;4.65;1.80;;;7.80;41.80;;;;;;1761782;80;21125;-75
2021/03/23 09:57:24;;;;;;;4.75;2.30;;;8.00;42.70;;;;;;1759390;80;21288;-73
2021/03/23 09:59:58;;;;;;;6.92;2.00;;;8.20;41.70;;;;;;1772082;80;21121;-69
2021/03/23 10:02:34;;;;;;;4.42;2.30;;;8.20;41.80;;;;;;1768449;80;21122;-72
2021/03/23 10:05:23;;;;;;;6.05;1.80;;;8.30;42.20;;;;;;1768220;81;21588;-72
2021/03/23 10:07:54;;;;;;;4.80;2.22;;;8.40;42.00;;;;;;1758833;80;21553;-71
2021/03/23 10:10:27;;;;;;;5.28;2.25;;;8.50;41.80;;;;;;1778297;80;21559;-72
2021/03/23 10:13:00;;;;;;;4.87;2.35;;;8.50;42.00;;;;;;1764240;81;21259;-70
2021/03/23 10:15:39;;;;;;;5.10;1.98;;;8.70;42.20;;;;;;1754172;81;21155;-73
2021/03/23 10:18:18;;;;;;;6.22;2.27;;;8.80;41.80;;;;;;1757877;81;21576;-73
2021/03/23 10:21:00;;;;;;;4.22;1.82;;;8.80;41.60;;;;;;1761931;80;21302;-74
2021/03/23 10:23:32;;;;;;;5.85;2.10;;;8.80;41.40;;;;;;1792454;80;21180;-74
2021/03/23 10:26:04;;;;;;;7.30;2.55;;;8.70;41.40;;;;;;1783377;79;21176;-75
2021/03/23 10:28:37;;;;;;;8.28;2.02;;;8.60;41.90;;;;;;1782507;79;21586;-73
2021/03/23 10:31:10;;;;;;;4.85;1.95;;;8.60;42.60;;;;;;1774142;79;21148;-74
2021/03/23 10:33:41;;;;;;;7.22;2.25;;;8.50;41.80;;;;;;1777955;79;21661;-73
2021/03/23 10:36:13;;;;;;;4.65;2.42;;;8.60;42.10;;;;;;1787515;79;21161;-74
2021/03/23 10:38:47;;;;;;;6.97;2.50;;;8.50;42.40;;;;;;1783539;79;21278;-74
2021/03/23 10:41:24;;;;;;;6.33;2.25;;;8.20;42.60;;;;;;1782801;79;21251;-73
2021/03/23 10:44:14;;;;;;;5.50;2.22;;;8.10;43.60;;;;;;1787222;79;21137;-74
2021/03/23 10:46:45;;;;;;;5.70;2.05;;;8.10;43.80;;;;;;1782663;79;21714;-74
2021/03/23 10:49:31;;;;;;;4.55;2.00;;;8.10;44.60;;;;;;1783022;80;21286;-72
2021/03/23 10:52:19;;;;;;;18.95;2.80;;;8.10;43.60;;;;;;1787169;79;21171;-74
2021/03/23 10:54:46;;;;;;;4.92;1.95;;;8.10;43.70;;;;;;1726121;82;21163;-72
2021/03/23 10:57:33;;;;;;;4.42;2.00;;;7.90;44.50;;;;;;1787294;79;21105;-72
2021/03/23 11:00:30;;;;;;;5.80;2.20;;;8.00;44.60;;;;;;1787721;79;21619;-76
2021/03/23 11:03:21;;;;;;;;;;;8.00;44.50;;;;;;1787638;79;22310;-75
2021/03/23 11:05:51;;;;;;;9.90;2.40;;;8.20;44.60;;;;;;1784148;79;20123;-74
2021/03/23 11:08:19;;;;;;;5.62;2.02;;;7.90;44.60;;;;;;1782888;79;21314;-73
2021/03/23 11:10:48;;;;;;;4.47;2.10;;;8.00;46.00;;;;;;1789786;79;21567;-70
2021/03/23 11:13:18;;;;;;;3.95;1.70;;;8.30;46.10;;;;;;1779663;79;21127;-71
2021/03/23 11:15:48;;;;;;;5.40;2.00;;;8.20;45.00;;;;;;1785104;79;21124;-73
2021/03/23 11:18:30;;;;;;;4.47;2.10;;;8.30;45.30;;;;;;1783242;79;21319;-69
2021/03/23 11:21:03;;;;;;;6.83;2.20;;;8.30;45.40;;;;;;1784136;79;21149;-70
2021/03/23 11:23:40;;;;;;;3.80;2.17;;;8.40;45.80;;;;;;1768333;80;21595;-69
2021/03/23 11:26:13;;;;;;;5.58;2.30;;;8.50;46.20;;;;;;1771039;80;21549;-69
2021/03/23 11:28:45;;;;;;;4.50;2.22;;;8.40;45.60;;;;;;1766138;80;21205;-69
2021/03/23 11:31:16;;;;;;;6.78;2.70;;;8.50;46.30;;;;;;1762568;79;21266;-71
2021/03/23 11:33:46;;;;;;;13.32;2.95;;;8.40;45.60;;;;;;1756327;82;21639;-76
2021/03/23 11:36:15;;;;;;;6.00;2.72;;;8.50;46.20;;;;;;1756868;82;21194;-75
2021/03/23 11:38:43;;;;;;;6.50;2.47;;;8.70;46.10;;;;;;1756466;82;21172;-75
2021/03/23 11:41:28;;;;;;;6.72;2.60;;;8.30;46.20;;;;;;1756580;82;21604;-77
2021/03/23 11:44:20;;;;;;;7.45;2.90;;;8.20;46.80;;;;;;1804470;79;27801;-77
2021/03/23 11:47:18;;;;;;;4.95;2.33;;;8.20;47.50;;;;;;1787487;79;21576;-74
2021/03/23 11:50:07;;;;;;;6.65;2.50;;;8.10;47.30;;;;;;1786610;80;21149;-74
2021/03/23 11:52:36;;;;;;;5.83;2.25;;;8.10;48.20;;;;;;1786103;80;21137;-73
2021/03/23 11:55:11;;;;;;;4.47;2.30;;;8.20;47.60;;;;;;1766841;80;21137;-75
2021/03/23 11:57:40;;;;;;;5.12;2.27;;;8.10;47.70;;;;;;1792972;80;21174;-75
2021/03/23 12:00:13;;;;;;;6.22;2.42;;;7.90;47.70;;;;;;1784838;80;21160;-76
2021/03/23 12:02:42;;;;;;;8.68;2.67;;;8.00;49.00;;;;;;1779918;80;21090;-76
2021/03/23 12:05:13;;;;;;;6.58;2.60;;;8.10;48.70;;;;;;1790483;80;21105;-76
2021/03/23 12:08:10;;;;;;;7.40;2.70;;;7.90;48.40;;;;;;1789339;80;21279;-74
2021/03/23 12:10:52;;;;;;;5.83;2.47;;;7.80;48.50;;;;;;1786283;80;21145;-74
2021/03/23 12:14:08;;;;;;;8.00;2.80;;;7.80;48.70;;;;;;1763233;80;21147;-74
2021/03/23 12:17:09;;;;;;;6.10;2.33;;;7.50;48.80;;;;;;1785030;80;21129;-75
2021/03/23 12:19:50;;;;;;;6.65;2.30;;;7.70;49.80;;;;;;1784691;80;21124;-77
2021/03/23 12:22:20;;;;;;;5.85;2.87;;;7.90;49.00;;;;;;1778559;80;21154;-76
2021/03/23 12:24:49;;;;;;;7.10;2.70;;;7.60;49.50;;;;;;1781278;80;21708;-71
2021/03/23 12:27:18;;;;;;;10.98;2.80;;;7.60;50.00;;;;;;1785538;80;21137;-71
2021/03/23 12:29:46;;;;;;;5.80;2.37;;;7.70;49.90;;;;;;1782041;80;21145;-77
2021/03/23 12:32:16;;;;;;;5.05;2.10;;;7.80;49.90;;;;;;1778615;80;21126;-75
2021/03/23 12:34:46;;;;;;;5.80;2.20;;;7.70;49.30;;;;;;1767359;80;21106;-72
2021/03/23 12:37:17;;;;;;;4.92;2.40;;;7.80;49.50;;;;;;1766631;80;21168;-75
2021/03/23 12:39:45;;;;;;;3.95;2.02;;;7.70;49.70;;;;;;1734147;81;21149;-79
2021/03/23 12:42:17;;;;;;;5.42;2.40;;;7.70;49.90;;;;;;1729407;82;21126;-76
2021/03/23 12:44:46;;;;;;;6.70;2.40;;;7.70;50.20;;;;;;1771552;81;21122;-79
2021/03/23 12:47:14;;;;;;;9.88;3.00;;;7.70;50.20;;;;;;1735567;82;21139;-77
2021/03/23 12:49:44;;;;;;;9.85;2.42;;;7.70;50.80;;;;;;1767701;81;21568;-76
2021/03/23 12:52:16;;;;;;;6.53;2.30;;;7.70;50.10;;;;;;1772158;80;21126;-81
2021/03/23 12:54:51;;;;;;;4.85;2.22;;;7.50;51.20;;;;;;1766692;81;21095;-72
2021/03/23 12:57:28;;;;;;;7.87;2.40;;;7.60;51.30;;;;;;1773796;81;21145;-71
2021/03/23 12:59:58;;;;;;;5.15;2.50;;;7.60;51.60;;;;;;1769775;81;21129;-71
2021/03/23 13:02:29;;;;;;;5.72;2.33;;;7.70;51.90;;;;;;1733016;82;21143;-71
2021/03/23 13:04:58;;;;;;;5.70;2.62;;;7.70;51.40;;;;;;1766762;81;21679;-74
2021/03/23 13:07:38;;;;;;;5.12;2.25;;;7.50;51.30;;;;;;1761917;81;21103;-73
2021/03/23 13:10:26;;;;;;;13.00;3.40;;;7.40;52.00;;;;;;1765898;81;21118;-74
2021/03/23 13:12:58;;;;;;;5.20;2.55;;;7.50;52.20;;;;;;1745079;81;21119;-78
2021/03/23 13:15:28;;;;;;;7.33;2.50;;;7.40;52.20;;;;;;1743686;81;21601;-74
2021/03/23 13:17:57;;;;;;;7.47;2.60;;;7.40;52.40;;;;;;1779402;81;21145;-79
2021/03/23 13:20:25;;;;;;;11.15;3.12;;;7.30;52.90;;;;;;1770417;81;21264;-75
2021/03/23 13:22:58;;;;;;;7.58;3.60;;;7.30;53.60;;;;;;1770245;80;21200;-71
2021/03/23 13:25:37;;;;;;;4.92;2.70;;;7.10;54.40;;;;;;1770864;80;21146;-72
2021/03/23 13:28:27;;;;;;;5.97;3.35;;;7.00;55.10;;;;;;1769561;81;21095;-76
2021/03/23 13:30:54;;;;;;;6.37;2.85;;;6.80;56.30;;;;;;1768940;81;21110;-81
2021/03/23 13:33:22;;;;;;;6.72;3.37;;;6.90;56.60;;;;;;1770326;80;21609;-74
2021/03/23 13:35:53;;;;;;;8.55;3.50;;;6.80;56.70;;;;;;1769146;81;21154;-77
2021/03/23 13:38:21;;;;;;;9.65;3.25;;;6.80;56.90;;;;;;1732630;82;21134;-73
2021/03/23 13:40:49;;;;;;;7.90;3.52;;;6.70;57.30;;;;;;1770397;81;21555;-72
2021/03/23 13:43:19;;;;;;;11.20;3.35;;;6.80;57.00;;;;;;1770451;80;21161;-73